createdAt,value
2018-02-07T00:00:16.905Z,61.40
2018-02-07T00:02:45.421Z,60.27
2018-02-07T00:05:16.101Z,54.10
2018-02-07T00:07:44.825Z,55.80
2018-02-07T00:10:16.683Z,51.33
2018-02-07T00:12:44.940Z,52.80
2018-02-07T00:15:17.464Z,61.63
2018-02-07T00:17:46.064Z,57.63
2018-02-07T00:20:14.309Z,56.17
2018-02-07T00:22:42.557Z,59.47
2018-02-07T00:25:13.014Z,58.67
2018-02-07T00:27:41.894Z,71.40
2018-02-07T00:30:16.321Z,67.70
2018-02-07T00:32:44.581Z,61.07
2018-02-07T00:35:16.174Z,64.33
2018-02-07T00:37:44.441Z,60.23
2018-02-07T00:40:16.963Z,70.53
2018-02-07T00:42:45.330Z,64.80
2018-02-07T00:45:13.977Z,67.03
2018-02-07T00:47:42.885Z,61.37
2018-02-07T00:50:16.749Z,66.07
2018-02-07T00:52:45.009Z,74.53
2018-02-07T00:55:17.012Z,68.30
2018-02-07T00:57:45.289Z,70.73
2018-02-07T01:00:16.546Z,81.80
2018-02-07T01:02:44.828Z,64.73
2018-02-07T01:05:16.380Z,61.87
2018-02-07T01:07:44.643Z,78.47
2018-02-07T01:10:16.213Z,74.67
2018-02-07T01:12:44.469Z,62.00
2018-02-07T01:15:16.687Z,62.70
2018-02-07T01:17:45.089Z,64.77
2018-02-07T01:20:15.868Z,68.03
2018-02-07T01:22:44.144Z,71.43
2018-02-07T01:25:16.919Z,65.63
2018-02-07T01:27:45.182Z,62.17
2018-02-07T01:30:16.192Z,71.03
2018-02-07T01:32:44.454Z,70.23
2018-02-07T01:35:16.344Z,86.00
2018-02-07T01:37:44.749Z,58.70
2018-02-07T01:40:16.606Z,66.40
2018-02-07T01:42:44.870Z,78.87
2018-02-07T01:45:16.248Z,64.47
2018-02-07T01:47:44.501Z,64.47
2018-02-07T01:50:16.737Z,70.00
2018-02-07T01:52:44.996Z,71.37
2018-02-07T01:55:15.865Z,67.87
2018-02-07T01:57:44.125Z,69.27
2018-02-07T02:00:12.945Z,85.27
2018-02-07T02:02:41.223Z,77.10
2018-02-07T02:05:13.779Z,83.57
2018-02-07T02:07:42.063Z,74.03
2018-02-07T02:10:14.362Z,83.33
2018-02-07T02:12:42.615Z,79.47
2018-02-07T02:15:17.394Z,75.43
2018-02-07T02:17:45.654Z,78.33
2018-02-07T02:20:16.757Z,83.63
2018-02-07T02:22:45.015Z,94.33
2018-02-07T02:25:16.417Z,95.37
2018-02-07T02:27:44.676Z,91.57
2018-02-07T02:30:16.630Z,86.50
2018-02-07T02:32:44.890Z,85.43
2018-02-07T02:35:17.001Z,92.07
2018-02-07T02:37:45.255Z,93.30
2018-02-07T02:40:16.749Z,100.37
2018-02-07T02:42:45.008Z,103.20
2018-02-07T02:45:16.414Z,91.13
2018-02-07T02:47:44.673Z,94.73
2018-02-07T02:50:12.949Z,99.07
2018-02-07T02:52:41.206Z,94.27
2018-02-07T02:55:09.493Z,107.43
2018-02-07T02:57:37.766Z,100.50
2018-02-07T03:00:14.675Z,99.40
2018-02-07T03:02:42.962Z,106.87
2018-02-07T03:05:13.177Z,112.60
2018-02-07T03:07:41.445Z,89.93
2018-02-07T03:10:15.816Z,96.80
2018-02-07T03:12:44.085Z,113.90
2018-02-07T03:15:17.374Z,102.40
2018-02-07T03:17:45.629Z,85.77
2018-02-07T03:20:17.576Z,97.60
2018-02-07T03:22:46.670Z,93.57
2018-02-07T03:25:15.591Z,89.85
2018-02-07T03:27:44.650Z,90.87
2018-02-07T03:30:16.735Z,88.10
2018-02-07T03:32:45.045Z,88.70
2018-02-07T03:35:16.109Z,97.27
2018-02-07T03:37:44.364Z,90.80
2018-02-07T03:40:16.737Z,96.13
2018-02-07T03:42:44.983Z,97.53
2018-02-07T03:45:16.357Z,100.13
2018-02-07T03:47:44.620Z,120.00
2018-02-07T03:50:16.770Z,95.40
2018-02-07T03:52:45.024Z,93.50
2018-02-07T03:55:16.328Z,92.53
2018-02-07T03:57:44.594Z,93.47
2018-02-07T04:00:17.699Z,85.03
2018-02-07T04:02:45.951Z,95.17
2018-02-07T04:05:16.300Z,85.03
2018-02-07T04:07:44.679Z,73.63
2018-02-07T04:10:16.570Z,91.13
2018-02-07T04:12:45.105Z,76.85
2018-02-07T04:15:14.743Z,82.37
2018-02-07T04:17:43.010Z,76.23
2018-02-07T04:20:22.191Z,83.57
2018-02-07T04:22:50.802Z,74.10
2018-02-07T04:25:19.061Z,75.80
2018-02-07T04:27:47.338Z,73.20
2018-02-07T04:30:15.598Z,76.20
2018-02-07T04:32:44.474Z,86.90
2018-02-07T04:35:16.816Z,76.20
2018-02-07T04:37:45.073Z,77.00
2018-02-07T04:40:16.790Z,61.17
2018-02-07T04:42:45.046Z,72.87
2018-02-07T04:45:16.046Z,72.93
2018-02-07T04:47:44.304Z,65.23
2018-02-07T04:50:16.442Z,70.87
2018-02-07T04:52:44.985Z,79.78
2018-02-07T04:55:16.363Z,69.22
2018-02-07T04:57:44.634Z,71.87
2018-02-07T05:00:16.094Z,64.10
2018-02-07T05:02:44.637Z,70.37
2018-02-07T05:05:16.321Z,62.00
2018-02-07T05:07:44.573Z,73.60
2018-02-07T05:10:16.565Z,74.50
2018-02-07T05:12:45.154Z,67.45
2018-02-07T05:15:16.425Z,66.55
2018-02-07T05:17:44.976Z,59.00
2018-02-07T05:20:16.711Z,67.72
2018-02-07T05:22:45.262Z,67.30
2018-02-07T05:25:16.339Z,68.18
2018-02-07T05:27:44.947Z,67.65
2018-02-07T05:30:16.495Z,66.78
2018-02-07T05:32:45.058Z,61.20
2018-02-07T05:35:16.579Z,68.97
2018-02-07T05:37:45.170Z,75.43
2018-02-07T05:40:15.514Z,64.95
2018-02-07T05:42:44.082Z,77.47
2018-02-07T05:45:16.440Z,66.12
2018-02-07T05:47:44.999Z,68.70
2018-02-07T05:50:16.207Z,67.55
2018-02-07T05:52:44.465Z,61.00
2018-02-07T05:55:13.529Z,59.63
2018-02-07T05:57:41.780Z,68.40
2018-02-07T06:00:16.061Z,56.90
2018-02-07T06:02:44.129Z,58.20
2018-02-07T06:05:16.428Z,64.30
2018-02-07T06:07:44.986Z,63.17
2018-02-07T06:10:16.610Z,61.58
2018-02-07T06:12:45.163Z,69.45
2018-02-07T06:15:17.124Z,68.77
2018-02-07T06:17:45.663Z,69.68
2018-02-07T06:20:16.517Z,78.32
2018-02-07T06:22:45.090Z,67.60
2018-02-07T06:25:16.489Z,62.07
2018-02-07T06:27:44.745Z,56.30
2018-02-07T06:30:16.481Z,59.43
2018-02-07T06:32:44.742Z,57.70
2018-02-07T06:35:16.882Z,60.70
2018-02-07T06:37:45.139Z,55.00
2018-02-07T06:40:13.395Z,60.83
2018-02-07T06:42:42.418Z,62.70
2018-02-07T06:45:16.382Z,77.25
2018-02-07T06:47:44.642Z,86.47
2018-02-07T06:50:16.291Z,71.40
2018-02-07T06:52:44.607Z,64.67
2018-02-07T06:55:17.310Z,69.77
2018-02-07T06:57:45.878Z,61.28
2018-02-07T07:00:16.527Z,65.72
2018-02-07T07:02:45.084Z,65.65
2018-02-07T07:05:16.127Z,73.28
2018-02-07T07:07:44.870Z,68.47
2018-02-07T07:10:16.017Z,70.57
2018-02-07T07:12:44.293Z,79.30
2018-02-07T07:15:17.377Z,68.07
2018-02-07T07:17:45.633Z,75.10
2018-02-07T07:20:17.201Z,63.73
2018-02-07T07:22:45.769Z,69.30
2018-02-07T07:25:15.857Z,64.37
2018-02-07T07:27:44.117Z,71.20
2018-02-07T07:30:16.295Z,63.40
2018-02-07T07:32:45.738Z,74.00
2018-02-07T07:35:17.301Z,66.55
2018-02-07T07:37:45.570Z,62.57
2018-02-07T07:40:16.087Z,58.57
2018-02-07T07:42:44.638Z,63.70
2018-02-07T07:45:13.149Z,59.87
2018-02-07T07:47:41.398Z,68.20
2018-02-07T07:50:15.750Z,62.58
2018-02-07T07:52:44.293Z,62.25
2018-02-07T07:55:16.982Z,56.67
2018-02-07T07:57:45.521Z,75.10
2018-02-07T08:00:17.341Z,63.67
2018-02-07T08:02:45.898Z,61.22
2018-02-07T08:05:16.571Z,61.72
2018-02-07T08:07:44.896Z,55.73
2018-02-07T08:10:16.758Z,57.53
2018-02-07T08:12:45.080Z,59.70
2018-02-07T08:15:13.340Z,58.80
2018-02-07T08:17:41.898Z,54.58
2018-02-07T08:20:13.516Z,59.20
2018-02-07T08:22:41.800Z,51.63
2018-02-07T08:25:19.562Z,52.57
2018-02-07T08:27:47.833Z,56.50
2018-02-07T08:30:16.109Z,53.47
2018-02-07T08:32:45.128Z,49.47
2018-02-07T08:35:13.410Z,53.73
2018-02-07T08:37:41.493Z,47.00
2018-02-07T08:40:11.612Z,48.40
2018-02-07T08:42:39.885Z,47.40
2018-02-07T08:45:15.867Z,44.50
2018-02-07T08:47:44.142Z,48.00
2018-02-07T08:50:14.163Z,43.67
2018-02-07T08:52:42.422Z,52.83
2018-02-07T08:55:15.975Z,47.23
2018-02-07T08:57:44.422Z,47.90
2018-02-07T09:00:15.858Z,53.50
2018-02-07T09:02:44.119Z,61.03
2018-02-07T09:05:12.390Z,53.90
2018-02-07T09:07:40.673Z,47.63
2018-02-07T09:10:16.059Z,58.23
2018-02-07T09:12:44.329Z,47.80
2018-02-07T09:15:14.546Z,45.97
2018-02-07T09:17:42.642Z,45.73
2018-02-07T09:20:13.962Z,41.37
2018-02-07T09:22:42.231Z,38.50
2018-02-07T09:25:16.661Z,38.23
2018-02-07T09:27:45.250Z,41.53
2018-02-07T09:30:13.510Z,41.20
2018-02-07T09:32:41.811Z,38.47
2018-02-07T09:35:16.344Z,43.27
2018-02-07T09:37:44.620Z,49.10
2018-02-07T09:40:15.729Z,37.07
2018-02-07T09:42:43.994Z,49.83
2018-02-07T09:45:13.249Z,44.47
2018-02-07T09:47:41.510Z,38.70
2018-02-07T09:50:11.870Z,40.70
2018-02-07T09:52:40.166Z,38.40
2018-02-07T09:55:09.418Z,39.87
2018-02-07T09:57:37.662Z,37.00
2018-02-07T10:00:12.165Z,35.43
2018-02-07T10:02:40.409Z,42.80
2018-02-07T10:05:10.890Z,41.90
2018-02-07T10:07:39.149Z,88.27
2018-02-07T10:10:07.954Z,34.77
2018-02-07T10:12:36.966Z,41.30
2018-02-07T10:15:11.271Z,52.93
2018-02-07T10:17:39.574Z,35.13
2018-02-07T10:20:10.884Z,39.23
2018-02-07T10:22:39.656Z,60.73
2018-02-07T10:25:14.603Z,39.43
2018-02-07T10:27:42.860Z,33.10
2018-02-07T10:30:17.018Z,36.10
2018-02-07T10:32:45.425Z,33.60
2018-02-07T10:35:13.384Z,37.17
2018-02-07T10:37:41.642Z,36.33
2018-02-07T10:40:15.928Z,33.60
2018-02-07T10:42:44.718Z,30.53
2018-02-07T10:45:12.982Z,31.50
2018-02-07T10:47:41.261Z,31.73
2018-02-07T10:50:12.309Z,26.50
2018-02-07T10:52:40.576Z,28.23
2018-02-07T10:55:08.826Z,39.10
2018-02-07T10:57:37.129Z,34.10
2018-02-07T11:00:05.795Z,31.63
2018-02-07T11:02:34.165Z,30.67
2018-02-07T11:05:02.473Z,27.93
2018-02-07T11:07:31.253Z,30.60
2018-02-07T11:09:59.523Z,29.37
2018-02-07T11:12:28.422Z,30.70
2018-02-07T11:14:56.692Z,35.37
2018-02-07T11:17:24.943Z,26.83
2018-02-07T11:19:53.226Z,36.83
2018-02-07T11:22:21.503Z,33.50
2018-02-07T11:24:49.770Z,35.43
2018-02-07T11:27:18.024Z,36.57
2018-02-07T11:29:46.302Z,33.33
2018-02-07T11:32:14.287Z,35.67
2018-02-07T11:34:43.622Z,33.00
2018-02-07T11:37:12.048Z,28.97
2018-02-07T11:39:40.323Z,28.47
2018-02-07T11:42:09.486Z,29.93
2018-02-07T11:44:37.757Z,26.97
2018-02-07T11:47:06.019Z,31.20
2018-02-07T11:49:34.284Z,28.80
2018-02-07T11:52:02.585Z,33.90
2018-02-07T11:54:31.643Z,34.47
2018-02-07T11:56:59.911Z,28.67
2018-02-07T11:59:29.082Z,31.33
2018-02-07T12:01:57.341Z,35.10
2018-02-07T12:04:25.597Z,28.00
2018-02-07T12:06:54.690Z,25.27
2018-02-07T12:09:22.985Z,30.20
2018-02-07T12:11:51.253Z,32.83
2018-02-07T12:14:19.523Z,31.27
2018-02-07T12:16:47.778Z,33.70
2018-02-07T12:19:16.044Z,31.23
2018-02-07T12:21:44.391Z,33.40
2018-02-07T12:24:12.657Z,36.30
2018-02-07T12:26:41.019Z,30.87
2018-02-07T12:29:09.422Z,30.03
2018-02-07T12:31:37.681Z,23.83
2018-02-07T12:34:05.938Z,30.27
2018-02-07T12:36:34.190Z,23.60
2018-02-07T12:39:02.464Z,30.60
2018-02-07T12:41:30.789Z,25.57
2018-02-07T12:43:59.063Z,24.67
2018-02-07T12:46:27.330Z,27.80
2018-02-07T12:48:56.349Z,24.73
2018-02-07T12:51:24.621Z,24.43
2018-02-07T12:53:52.886Z,22.90
2018-02-07T12:56:21.166Z,39.90
2018-02-07T12:58:49.415Z,29.63
2018-02-07T13:01:17.681Z,29.50
2018-02-07T13:03:45.947Z,31.07
2018-02-07T13:06:14.219Z,25.73
2018-02-07T13:08:42.480Z,100.03
2018-02-07T13:11:10.733Z,68.20
2018-02-07T13:13:38.986Z,64.83
2018-02-07T13:16:07.233Z,28.60
2018-02-07T13:18:35.490Z,35.23
2018-02-07T13:21:03.745Z,39.07
2018-02-07T13:23:32.019Z,40.40
2018-02-07T13:26:00.302Z,34.30
2018-02-07T13:28:28.631Z,32.10
2018-02-07T13:30:57.061Z,32.83
2018-02-07T13:33:25.317Z,26.07
2018-02-07T13:35:54.703Z,28.47
2018-02-07T13:38:22.956Z,30.23
2018-02-07T13:40:51.311Z,31.07
2018-02-07T13:43:19.590Z,29.87
2018-02-07T13:45:47.856Z,28.90
2018-02-07T13:48:16.126Z,32.60
2018-02-07T13:50:44.471Z,27.47
2018-02-07T13:53:12.773Z,31.30
2018-02-07T13:55:41.056Z,29.90
2018-02-07T13:58:09.310Z,28.40
2018-02-07T14:00:43.126Z,31.33
2018-02-07T14:03:11.414Z,34.37
2018-02-07T14:05:39.686Z,39.73
2018-02-07T14:08:07.942Z,28.57
2018-02-07T14:10:36.198Z,30.40
2018-02-07T14:13:04.468Z,28.77
2018-02-07T14:15:32.725Z,37.00
2018-02-07T14:18:00.981Z,27.50
2018-02-07T14:20:29.797Z,31.27
2018-02-07T14:22:58.060Z,36.53
2018-02-07T14:25:26.327Z,27.53
2018-02-07T14:27:54.582Z,30.77
2018-02-07T14:30:22.858Z,29.17
2018-02-07T14:32:51.116Z,35.70
2018-02-07T14:35:23.259Z,33.77
2018-02-07T14:37:51.526Z,33.77
2018-02-07T14:40:19.775Z,26.30
2018-02-07T14:42:48.029Z,32.17
2018-02-07T14:45:17.220Z,32.47
2018-02-07T14:47:45.494Z,33.60
2018-02-07T14:50:18.137Z,38.10
2018-02-07T14:52:46.413Z,35.23
2018-02-07T14:55:18.781Z,31.77
2018-02-07T14:57:47.041Z,38.93
2018-02-07T15:00:18.759Z,35.17
2018-02-07T15:02:47.625Z,29.40
2018-02-07T15:05:19.296Z,38.80
2018-02-07T15:07:47.558Z,28.73
2018-02-07T15:10:18.994Z,27.83
2018-02-07T15:12:47.287Z,33.63
2018-02-07T15:15:19.602Z,33.13
2018-02-07T15:17:48.042Z,37.23
2018-02-07T15:20:18.509Z,30.27
2018-02-07T15:22:46.785Z,36.90
2018-02-07T15:25:18.754Z,43.50
2018-02-07T15:27:47.140Z,24.20
2018-02-07T15:30:18.185Z,26.03
2018-02-07T15:32:46.464Z,31.90
2018-02-07T15:35:18.464Z,30.13
2018-02-07T15:37:46.914Z,28.67
2018-02-07T15:40:18.478Z,28.10
2018-02-07T15:42:47.712Z,27.33
2018-02-07T15:45:18.686Z,27.70
2018-02-07T15:47:46.943Z,32.23
2018-02-07T15:50:18.582Z,30.67
2018-02-07T15:52:46.853Z,28.90
2018-02-07T15:55:18.910Z,26.33
2018-02-07T15:57:47.818Z,33.43
2018-02-07T16:00:19.753Z,33.87
2018-02-07T16:02:48.021Z,39.20
2018-02-07T16:05:18.987Z,38.20
2018-02-07T16:07:47.250Z,37.03
2018-02-07T16:10:18.662Z,33.43
2018-02-07T16:12:46.914Z,42.90
2018-02-07T16:15:18.104Z,33.47
2018-02-07T16:17:46.381Z,41.90
2018-02-07T16:20:18.840Z,42.87
2018-02-07T16:22:47.124Z,36.80
2018-02-07T16:25:21.044Z,43.70
2018-02-07T16:27:49.330Z,35.77
2018-02-07T16:30:19.618Z,37.50
2018-02-07T16:32:47.869Z,44.27
2018-02-07T16:35:18.803Z,38.13
2018-02-07T16:37:47.078Z,37.17
2018-02-07T16:40:21.213Z,44.23
2018-02-07T16:42:49.589Z,46.17
2018-02-07T16:45:18.990Z,44.60
2018-02-07T16:47:47.247Z,52.20
2018-02-07T16:50:18.227Z,61.27
2018-02-07T16:52:46.505Z,70.00
2018-02-07T16:55:18.516Z,66.53
2018-02-07T16:57:46.794Z,86.60
2018-02-07T17:00:18.362Z,64.30
2018-02-07T17:02:46.615Z,60.00
2018-02-07T17:05:19.594Z,65.87
2018-02-07T17:07:47.853Z,61.23
2018-02-07T17:10:19.086Z,65.37
2018-02-07T17:12:47.956Z,61.37
2018-02-07T17:15:18.607Z,57.03
2018-02-07T17:17:46.883Z,62.07
2018-02-07T17:20:18.422Z,72.30
2018-02-07T17:22:46.710Z,70.00
2018-02-07T17:25:19.262Z,59.30
2018-02-07T17:27:52.738Z,75.57
2018-02-07T17:30:21.018Z,96.97
2018-02-07T17:32:49.858Z,70.03
2018-02-07T17:35:18.898Z,88.83
2018-02-07T17:37:48.133Z,85.60
2018-02-07T17:40:16.393Z,120.97
2018-02-07T17:42:44.653Z,97.43
2018-02-07T17:45:18.433Z,99.07
2018-02-07T17:47:46.714Z,113.13
2018-02-07T17:50:19.194Z,95.63
2018-02-07T17:52:47.478Z,107.60
2018-02-07T17:55:21.291Z,104.77
2018-02-07T17:57:49.881Z,102.87
2018-02-07T18:00:18.692Z,95.13
2018-02-07T18:02:46.965Z,103.70
2018-02-07T18:05:15.058Z,98.87
2018-02-07T18:07:43.382Z,81.60
2018-02-07T18:10:18.562Z,83.83
2018-02-07T18:12:46.827Z,106.23
2018-02-07T18:15:15.430Z,87.67
2018-02-07T18:17:43.713Z,72.67
2018-02-07T18:20:18.264Z,72.83
2018-02-07T18:22:46.526Z,50.43
2018-02-07T18:25:19.354Z,53.60
2018-02-07T18:27:48.448Z,59.73
2018-02-07T18:30:17.229Z,78.93
2018-02-07T18:32:45.491Z,76.17
2018-02-07T18:35:19.634Z,58.63
2018-02-07T18:37:47.910Z,63.07
2018-02-07T18:40:18.523Z,54.30
2018-02-07T18:42:46.813Z,49.57
2018-02-07T18:45:16.767Z,54.20
2018-02-07T18:47:45.069Z,84.93
2018-02-07T18:50:15.694Z,52.73
2018-02-07T18:52:43.978Z,58.03
2018-02-07T18:55:18.892Z,51.63
2018-02-07T18:57:47.234Z,51.43
2018-02-07T19:00:15.493Z,39.07
2018-02-07T19:02:44.472Z,44.13
2018-02-07T19:05:19.192Z,40.07
2018-02-07T19:07:48.039Z,42.10
2018-02-07T19:10:18.882Z,31.50
2018-02-07T19:12:47.205Z,28.17
2018-02-07T19:15:19.785Z,28.37
2018-02-07T19:17:48.060Z,29.00
2018-02-07T19:20:20.248Z,29.27
2018-02-07T19:22:48.525Z,35.00
2018-02-07T19:25:34.663Z,32.97
2018-02-07T19:28:02.924Z,32.33
2018-02-07T19:30:31.249Z,28.80
2018-02-07T19:32:59.517Z,31.93
2018-02-07T19:35:27.777Z,33.03
2018-02-07T19:37:55.891Z,30.33
2018-02-07T19:40:30.282Z,28.20
2018-02-07T19:42:59.425Z,21.67
2018-02-07T19:45:27.692Z,22.27
2018-02-07T19:47:56.282Z,25.03
2018-02-07T19:50:24.554Z,30.53
2018-02-07T19:52:52.826Z,27.17
2018-02-07T19:55:21.089Z,27.17
2018-02-07T19:57:49.366Z,24.83
2018-02-07T20:00:18.582Z,21.60
2018-02-07T20:02:46.875Z,23.53
2018-02-07T20:05:19.717Z,17.33
2018-02-07T20:07:47.998Z,20.40
2018-02-07T20:10:19.021Z,15.23
2018-02-07T20:12:47.285Z,17.10
2018-02-07T20:15:19.374Z,17.90
2018-02-07T20:17:47.703Z,12.50
2018-02-07T20:20:21.817Z,17.00
2018-02-07T20:22:50.558Z,13.80
2018-02-07T20:25:19.338Z,11.90
2018-02-07T20:27:48.062Z,14.90
2018-02-07T20:30:18.967Z,11.47
2018-02-07T20:32:47.243Z,12.73
2018-02-07T20:35:16.281Z,11.43
2018-02-07T20:37:44.809Z,13.20
2018-02-07T20:40:14.203Z,13.13
2018-02-07T20:42:42.486Z,14.13
2018-02-07T20:45:12.986Z,13.63
2018-02-07T20:47:41.269Z,11.80
2018-02-07T20:50:14.294Z,15.20
2018-02-07T20:52:42.585Z,16.03
2018-02-07T20:55:17.904Z,15.50
2018-02-07T20:57:46.174Z,20.00
2018-02-07T21:00:14.429Z,26.97
2018-02-07T21:02:42.678Z,20.60
2018-02-07T21:05:18.648Z,23.50
2018-02-07T21:07:46.899Z,20.03
2018-02-07T21:10:16.884Z,24.47
2018-02-07T21:12:45.138Z,24.10
2018-02-07T21:15:18.247Z,21.37
2018-02-07T21:17:46.505Z,18.77
2018-02-07T21:20:18.178Z,21.50
2018-02-07T21:22:46.074Z,20.83
2018-02-07T21:25:18.882Z,20.40
2018-02-07T21:27:47.154Z,19.30
2018-02-07T21:30:18.382Z,18.73
2018-02-07T21:32:46.670Z,21.37
2018-02-07T21:35:18.863Z,20.53
2018-02-07T21:37:47.114Z,24.33
2018-02-07T21:40:17.588Z,20.00
2018-02-07T21:42:45.858Z,26.40
2018-02-07T21:45:18.641Z,22.47
2018-02-07T21:47:46.907Z,20.80
2018-02-07T21:50:18.846Z,18.83
2018-02-07T21:52:47.113Z,22.27
2018-02-07T21:55:18.906Z,19.90
2018-02-07T21:57:47.160Z,21.70
2018-02-07T22:00:20.302Z,24.10
2018-02-07T22:02:48.582Z,21.27
2018-02-07T22:05:18.345Z,22.53
2018-02-07T22:07:46.639Z,22.30
2018-02-07T22:10:19.098Z,22.80
2018-02-07T22:12:47.357Z,19.17
2018-02-07T22:15:19.228Z,23.00
2018-02-07T22:17:47.483Z,22.17
2018-02-07T22:20:19.397Z,22.10
2018-02-07T22:22:47.659Z,24.50
2018-02-07T22:25:20.005Z,23.53
2018-02-07T22:27:48.276Z,22.17
2018-02-07T22:30:19.551Z,22.00
2018-02-07T22:32:49.128Z,21.47
2018-02-07T22:35:18.626Z,23.90
2018-02-07T22:37:46.918Z,22.50
2018-02-07T22:40:18.558Z,24.37
2018-02-07T22:42:46.825Z,23.67
2018-02-07T22:45:18.543Z,22.37
2018-02-07T22:47:46.794Z,21.50
2018-02-07T22:50:15.066Z,24.03
2018-02-07T22:52:43.347Z,23.40
2018-02-07T22:55:17.866Z,22.50
2018-02-07T22:57:46.309Z,24.03
2018-02-07T23:00:18.968Z,21.60
2018-02-07T23:02:47.426Z,20.90
2018-02-07T23:05:17.879Z,25.53
2018-02-07T23:07:46.161Z,22.20
2018-02-07T23:10:17.554Z,21.73
2018-02-07T23:12:45.822Z,28.63
2018-02-07T23:15:14.150Z,25.35
2018-02-07T23:17:42.409Z,26.50
2018-02-07T23:20:14.785Z,22.03
2018-02-07T23:22:43.059Z,25.37
2018-02-07T23:25:17.381Z,22.57
2018-02-07T23:27:45.654Z,24.03
2018-02-07T23:30:13.926Z,22.23
2018-02-07T23:32:42.201Z,24.13
2018-02-07T23:35:20.714Z,23.37
2018-02-07T23:37:54.870Z,29.07
2018-02-07T23:40:25.251Z,24.47
2018-02-07T23:42:53.510Z,23.27
2018-02-07T23:45:21.802Z,23.20
2018-02-07T23:47:50.376Z,23.98
2018-02-07T23:50:18.674Z,27.33
2018-02-07T23:52:47.702Z,25.00
2018-02-07T23:55:16.749Z,29.10
2018-02-07T23:57:45.887Z,23.87
